createdAt,value
2019-01-06T00:01:01.443Z,81.51
2019-01-06T00:02:20.162Z,81.48
2019-01-06T00:03:58.933Z,81.58
2019-01-06T00:05:21.412Z,81.37
2019-01-06T00:06:45.584Z,81.32
2019-01-06T00:08:01.390Z,81.44
2019-01-06T00:09:26.331Z,81.48
2019-01-06T00:10:48.996Z,81.31
2019-01-06T00:12:23.643Z,81.31
2019-01-06T00:13:52.961Z,81.26
2019-01-06T00:15:16.910Z,81.22
2019-01-06T00:16:41.114Z,81.11
2019-01-06T00:18:04.366Z,81.22
2019-01-06T00:19:28.349Z,81.19
2019-01-06T00:20:59.787Z,81.10
2019-01-06T00:22:27.444Z,80.85
2019-01-06T00:23:49.770Z,80.71
2019-01-06T00:25:13.963Z,80.77
2019-01-06T00:26:36.563Z,80.84
2019-01-06T00:27:59.317Z,80.99
2019-01-06T00:29:27.354Z,81.06
2019-01-06T00:30:59.058Z,80.98
2019-01-06T00:32:19.569Z,81.00
2019-01-06T00:33:49.493Z,80.98
2019-01-06T00:35:28.631Z,81.03
2019-01-06T00:36:51.568Z,81.04
2019-01-06T00:38:01.702Z,80.95
2019-01-06T00:39:24.862Z,81.05
2019-01-06T00:40:42.347Z,81.13
2019-01-06T00:42:11.647Z,81.25
2019-01-06T00:43:42.475Z,81.32
2019-01-06T00:45:09.710Z,81.47
2019-01-06T00:46:39.418Z,81.51
2019-01-06T00:48:02.393Z,81.59
2019-01-06T00:49:29.745Z,81.59
2019-01-06T00:51:02.817Z,81.59
2019-01-06T00:52:32.601Z,81.59
2019-01-06T00:53:55.101Z,81.70
2019-01-06T00:55:28.986Z,81.79
2019-01-06T00:56:51.724Z,81.77
2019-01-06T00:58:14.341Z,81.65
2019-01-06T00:59:33.244Z,81.72
2019-01-06T01:00:46.856Z,81.62
2019-01-06T01:02:13.863Z,81.56
2019-01-06T01:03:36.568Z,81.70
2019-01-06T01:04:59.000Z,81.77
2019-01-06T01:06:21.593Z,81.59
2019-01-06T01:07:44.023Z,81.54
2019-01-06T01:09:19.256Z,81.53
2019-01-06T01:10:46.278Z,81.55
2019-01-06T01:12:25.707Z,81.29
2019-01-06T01:13:45.770Z,81.30
2019-01-06T01:15:07.060Z,81.35
2019-01-06T01:16:29.541Z,81.37
2019-01-06T01:17:52.410Z,81.44
2019-01-06T01:19:20.616Z,81.44
2019-01-06T01:20:56.241Z,81.47
2019-01-06T01:22:17.551Z,81.62
2019-01-06T01:23:41.573Z,81.69
2019-01-06T01:25:07.033Z,81.53
2019-01-06T01:26:32.827Z,81.44
2019-01-06T01:28:02.791Z,81.52
2019-01-06T01:29:38.811Z,81.45
2019-01-06T01:31:02.752Z,81.49
2019-01-06T01:32:25.572Z,81.56
2019-01-06T01:33:49.588Z,81.53
2019-01-06T01:35:10.169Z,81.45
2019-01-06T01:36:33.191Z,81.37
2019-01-06T01:38:09.288Z,81.54
2019-01-06T01:39:51.309Z,81.48
2019-01-06T01:41:11.322Z,81.23
2019-01-06T01:42:31.707Z,81.42
2019-01-06T01:43:49.077Z,81.45
2019-01-06T01:45:17.151Z,81.43
2019-01-06T01:46:40.339Z,81.64
2019-01-06T01:48:16.575Z,81.81
2019-01-06T01:49:39.624Z,81.87
2019-01-06T01:51:04.599Z,82.02
2019-01-06T01:52:40.531Z,82.13
2019-01-06T01:54:03.659Z,82.10
2019-01-06T01:55:27.586Z,82.23
2019-01-06T01:56:50.264Z,82.30
2019-01-06T01:58:12.871Z,82.35
2019-01-06T01:59:25.562Z,82.40
2019-01-06T02:00:47.928Z,82.57
2019-01-06T02:02:10.731Z,82.56
2019-01-06T02:03:33.047Z,82.55
2019-01-06T02:04:55.756Z,82.52
2019-01-06T02:06:38.226Z,82.68
2019-01-06T02:08:05.996Z,82.72
2019-01-06T02:09:24.354Z,82.60
2019-01-06T02:10:54.175Z,82.59
2019-01-06T02:12:24.612Z,82.70
2019-01-06T02:13:53.709Z,82.89
2019-01-06T02:15:26.462Z,82.91
2019-01-06T02:16:49.068Z,83.05
2019-01-06T02:18:22.549Z,83.01
2019-01-06T02:19:45.300Z,83.15
2019-01-06T02:21:08.046Z,82.98
2019-01-06T02:22:33.279Z,83.16
2019-01-06T02:23:53.359Z,83.20
2019-01-06T02:25:14.722Z,83.29
2019-01-06T02:26:36.617Z,83.33
2019-01-06T02:27:58.980Z,83.28
2019-01-06T02:29:14.541Z,83.20
2019-01-06T02:30:50.919Z,83.26
2019-01-06T02:32:13.236Z,83.22
2019-01-06T02:33:49.151Z,83.22
2019-01-06T02:35:11.624Z,83.25
2019-01-06T02:36:44.598Z,83.18
2019-01-06T02:38:20.650Z,83.14
2019-01-06T02:39:47.158Z,83.19
2019-01-06T02:41:09.555Z,83.17
2019-01-06T02:42:45.264Z,83.14
2019-01-06T02:44:12.762Z,83.14
2019-01-06T02:45:35.395Z,83.00
2019-01-06T02:46:59.307Z,83.13
2019-01-06T02:48:23.453Z,83.12
2019-01-06T02:49:45.920Z,83.26
2019-01-06T02:51:24.755Z,83.14
2019-01-06T02:53:03.624Z,83.11
2019-01-06T02:54:26.159Z,82.89
2019-01-06T02:55:48.571Z,82.94
2019-01-06T02:57:18.533Z,82.87
2019-01-06T02:58:42.798Z,82.95
2019-01-06T03:00:08.679Z,83.08
2019-01-06T03:01:38.597Z,82.99
2019-01-06T03:03:01.402Z,83.09
2019-01-06T03:04:23.803Z,83.26
2019-01-06T03:05:47.767Z,83.19
2019-01-06T03:07:10.227Z,82.97
2019-01-06T03:08:43.227Z,83.00
2019-01-06T03:10:05.689Z,82.92
2019-01-06T03:11:28.430Z,82.83
2019-01-06T03:12:48.799Z,82.73
2019-01-06T03:14:07.533Z,82.75
2019-01-06T03:15:39.688Z,82.76
2019-01-06T03:17:19.072Z,82.74
2019-01-06T03:18:46.630Z,82.71
2019-01-06T03:20:09.248Z,82.74
2019-01-06T03:21:33.274Z,82.54
2019-01-06T03:22:57.484Z,82.53
2019-01-06T03:24:31.008Z,82.46
2019-01-06T03:26:03.957Z,82.60
2019-01-06T03:27:42.640Z,82.40
2019-01-06T03:29:09.235Z,82.46
2019-01-06T03:30:28.464Z,82.54
2019-01-06T03:31:51.113Z,82.52
2019-01-06T03:33:06.951Z,82.46
2019-01-06T03:34:31.029Z,82.45
2019-01-06T03:36:01.288Z,82.33
2019-01-06T03:37:23.642Z,82.22
2019-01-06T03:38:57.253Z,82.21
2019-01-06T03:40:19.713Z,82.26
2019-01-06T03:41:34.488Z,82.26
2019-01-06T03:42:50.799Z,82.17
2019-01-06T03:44:17.734Z,82.20
2019-01-06T03:45:41.779Z,82.28
2019-01-06T03:47:06.430Z,82.40
2019-01-06T03:48:33.174Z,82.28
2019-01-06T03:50:01.389Z,82.10
2019-01-06T03:51:28.100Z,82.06
2019-01-06T03:52:54.335Z,82.13
2019-01-06T03:54:32.191Z,82.14
2019-01-06T03:55:54.572Z,82.18
2019-01-06T03:57:27.459Z,82.30
2019-01-06T03:58:49.634Z,82.21
2019-01-06T04:00:13.611Z,82.25
2019-01-06T04:01:36.353Z,82.14
2019-01-06T04:02:52.314Z,82.08
2019-01-06T04:04:25.811Z,82.00
2019-01-06T04:05:50.785Z,81.98
2019-01-06T04:07:21.137Z,81.89
2019-01-06T04:08:40.582Z,82.10
2019-01-06T04:10:04.108Z,82.10
2019-01-06T04:11:33.564Z,81.95
2019-01-06T04:12:53.962Z,81.85
2019-01-06T04:14:17.713Z,81.94
2019-01-06T04:15:40.896Z,82.01
2019-01-06T04:17:07.873Z,81.96
2019-01-06T04:18:46.734Z,81.97
2019-01-06T04:20:22.771Z,82.03
2019-01-06T04:21:40.562Z,81.90
2019-01-06T04:23:03.121Z,82.02
2019-01-06T04:24:26.929Z,81.86
2019-01-06T04:25:52.127Z,81.81
2019-01-06T04:27:14.801Z,81.88
2019-01-06T04:28:38.261Z,81.88
2019-01-06T04:30:00.301Z,81.91
2019-01-06T04:31:39.945Z,81.97
2019-01-06T04:33:07.471Z,82.04
2019-01-06T04:34:44.609Z,82.01
2019-01-06T04:36:08.807Z,81.98
2019-01-06T04:37:45.005Z,81.81
2019-01-06T04:39:12.412Z,81.68
2019-01-06T04:40:35.132Z,81.64
2019-01-06T04:42:05.496Z,81.78
2019-01-06T04:43:32.408Z,81.64
2019-01-06T04:44:56.429Z,81.61
2019-01-06T04:46:17.850Z,81.62
2019-01-06T04:47:51.166Z,81.70
2019-01-06T04:49:13.805Z,81.70
2019-01-06T04:50:36.970Z,81.65
2019-01-06T04:51:59.561Z,81.59
2019-01-06T04:53:30.016Z,81.56
2019-01-06T04:55:02.992Z,81.70
2019-01-06T04:56:26.962Z,81.73
2019-01-06T04:57:56.662Z,81.63
2019-01-06T04:59:20.860Z,81.63
2019-01-06T05:00:43.724Z,81.60
2019-01-06T05:02:13.559Z,81.42
2019-01-06T05:03:49.676Z,81.43
2019-01-06T05:05:09.441Z,81.46
2019-01-06T05:06:32.102Z,81.40
2019-01-06T05:08:01.898Z,81.32
2019-01-06T05:09:25.586Z,81.36
2019-01-06T05:10:47.989Z,81.37
2019-01-06T05:12:07.394Z,81.36
2019-01-06T05:13:20.084Z,81.26
2019-01-06T05:14:44.407Z,81.28
2019-01-06T05:16:09.177Z,81.34
2019-01-06T05:17:34.869Z,81.41
2019-01-06T05:18:58.790Z,81.49
2019-01-06T05:20:21.395Z,81.26
2019-01-06T05:21:48.170Z,81.15
2019-01-06T05:23:24.505Z,81.23
2019-01-06T05:24:46.923Z,81.25
2019-01-06T05:26:07.026Z,81.21
2019-01-06T05:27:37.997Z,81.21
2019-01-06T05:29:00.333Z,81.34
2019-01-06T05:30:17.499Z,81.35
2019-01-06T05:31:40.084Z,81.39
2019-01-06T05:32:57.660Z,81.40
2019-01-06T05:34:25.016Z,81.49
2019-01-06T05:35:56.963Z,81.40
2019-01-06T05:37:23.053Z,81.35
2019-01-06T05:38:50.191Z,81.44
2019-01-06T05:40:09.525Z,81.41
2019-01-06T05:41:24.838Z,81.38
2019-01-06T05:42:41.421Z,81.47
2019-01-06T05:44:05.750Z,81.51
2019-01-06T05:45:35.443Z,81.53
2019-01-06T05:46:51.972Z,81.44
2019-01-06T05:48:27.390Z,81.33
2019-01-06T05:49:49.760Z,81.37
2019-01-06T05:51:12.060Z,81.40
2019-01-06T05:52:34.633Z,81.45
2019-01-06T05:53:56.985Z,81.42
2019-01-06T05:55:32.815Z,81.42
2019-01-06T05:56:55.273Z,81.41
2019-01-06T05:58:11.370Z,81.42
2019-01-06T05:59:50.708Z,81.47
2019-01-06T06:01:23.766Z,81.53
2019-01-06T06:02:48.248Z,81.41
2019-01-06T06:04:04.342Z,81.44
2019-01-06T06:05:23.804Z,81.42
2019-01-06T06:06:39.161Z,81.62
2019-01-06T06:08:01.669Z,81.71
2019-01-06T06:09:25.799Z,81.58
2019-01-06T06:10:55.483Z,81.49
2019-01-06T06:12:19.533Z,81.41
2019-01-06T06:13:42.475Z,81.57
2019-01-06T06:15:21.719Z,81.72
2019-01-06T06:16:44.442Z,81.76
2019-01-06T06:18:06.657Z,81.71
2019-01-06T06:19:25.774Z,81.49
2019-01-06T06:20:49.696Z,81.53
2019-01-06T06:22:12.505Z,81.39
2019-01-06T06:23:28.221Z,81.47
2019-01-06T06:24:59.669Z,81.41
2019-01-06T06:26:26.723Z,81.35
2019-01-06T06:28:02.746Z,81.42
2019-01-06T06:29:20.786Z,81.34
2019-01-06T06:30:43.594Z,81.29
2019-01-06T06:32:06.187Z,81.17
2019-01-06T06:33:48.167Z,81.22
2019-01-06T06:35:21.261Z,81.17
2019-01-06T06:36:47.058Z,81.26
2019-01-06T06:38:09.855Z,81.25
2019-01-06T06:39:32.175Z,81.05
2019-01-06T06:40:56.188Z,81.14
2019-01-06T06:42:18.866Z,81.12
2019-01-06T06:43:39.816Z,81.13
2019-01-06T06:44:56.919Z,81.25
2019-01-06T06:46:24.381Z,81.35
2019-01-06T06:47:48.549Z,81.38
2019-01-06T06:49:06.890Z,81.36
2019-01-06T06:50:46.194Z,81.13
2019-01-06T06:52:19.395Z,81.06
2019-01-06T06:53:41.800Z,81.14
2019-01-06T06:55:08.697Z,80.94
2019-01-06T06:56:31.378Z,80.81
2019-01-06T06:58:38.182Z,80.78
2019-01-06T07:00:48.671Z,80.72
2019-01-06T07:03:01.764Z,80.89
2019-01-06T07:04:25.982Z,80.89
2019-01-06T07:05:48.687Z,80.73
2019-01-06T07:07:15.718Z,81.07
2019-01-06T07:08:48.861Z,81.07
2019-01-06T07:10:25.051Z,81.15
2019-01-06T07:11:40.091Z,81.26
2019-01-06T07:13:06.888Z,81.29
2019-01-06T07:14:24.239Z,81.34
2019-01-06T07:15:46.550Z,81.39
2019-01-06T07:17:37.825Z,81.30
2019-01-06T07:19:04.881Z,81.27
2019-01-06T07:20:28.817Z,81.02
2019-01-06T07:21:54.139Z,81.00
2019-01-06T07:23:17.301Z,81.00
2019-01-06T07:24:44.009Z,81.04
2019-01-06T07:26:16.851Z,81.10
2019-01-06T07:27:39.532Z,81.17
2019-01-06T07:28:56.840Z,81.31
2019-01-06T07:30:19.127Z,81.34
2019-01-06T07:31:47.196Z,81.27
2019-01-06T07:33:16.978Z,81.33
2019-01-06T07:34:59.176Z,81.22
2019-01-06T07:36:18.765Z,81.26
2019-01-06T07:37:41.131Z,81.34
2019-01-06T07:39:14.274Z,81.52
2019-01-06T07:40:56.353Z,81.65
2019-01-06T07:42:18.704Z,81.60
2019-01-06T07:43:54.585Z,81.73
2019-01-06T07:45:24.390Z,81.85
2019-01-06T07:46:46.958Z,81.77
2019-01-06T07:48:23.136Z,81.81
2019-01-06T07:49:36.289Z,81.83
2019-01-06T07:50:56.319Z,81.95
2019-01-06T07:52:26.304Z,81.93
2019-01-06T07:53:48.817Z,82.02
2019-01-06T07:55:12.915Z,81.99
2019-01-06T07:56:31.236Z,82.04
2019-01-06T07:57:53.867Z,82.05
2019-01-06T07:59:11.562Z,82.05
2019-01-06T08:00:33.962Z,82.13
2019-01-06T08:01:53.373Z,82.28
2019-01-06T08:03:15.720Z,82.35
2019-01-06T08:04:38.356Z,82.44
2019-01-06T08:06:01.008Z,82.52
2019-01-06T08:07:23.768Z,82.51
2019-01-06T08:08:58.347Z,82.66
2019-01-06T08:10:16.449Z,82.70
2019-01-06T08:11:34.410Z,82.45
2019-01-06T08:13:01.233Z,82.32
2019-01-06T08:14:25.490Z,82.09
2019-01-06T08:15:48.321Z,82.20
2019-01-06T08:17:18.277Z,82.33
2019-01-06T08:18:40.680Z,82.38
2019-01-06T08:20:10.424Z,82.43
2019-01-06T08:21:46.641Z,82.23
2019-01-06T08:23:09.015Z,82.21
2019-01-06T08:24:33.455Z,82.35
2019-01-06T08:26:09.243Z,82.24
2019-01-06T08:27:36.854Z,82.24
2019-01-06T08:28:59.146Z,82.10
2019-01-06T08:30:29.652Z,81.87
2019-01-06T08:31:56.665Z,81.80
2019-01-06T08:33:27.644Z,81.98
2019-01-06T08:34:50.316Z,82.02
2019-01-06T08:36:12.502Z,82.10
2019-01-06T08:37:35.146Z,82.17
2019-01-06T08:39:14.021Z,82.19
2019-01-06T08:40:29.918Z,82.14
2019-01-06T08:41:52.562Z,82.14
2019-01-06T08:43:22.344Z,82.10
2019-01-06T08:44:44.024Z,81.97
2019-01-06T08:46:06.315Z,81.92
2019-01-06T08:47:29.448Z,82.00
2019-01-06T08:48:52.088Z,82.06
2019-01-06T08:50:06.817Z,82.04
2019-01-06T08:51:45.901Z,82.09
2019-01-06T08:53:09.845Z,82.17
2019-01-06T08:54:37.081Z,82.10
2019-01-06T08:55:58.692Z,82.22
2019-01-06T08:57:22.638Z,82.30
2019-01-06T08:58:39.347Z,82.11
2019-01-06T09:00:06.303Z,82.04
2019-01-06T09:01:28.918Z,82.02
2019-01-06T09:03:04.114Z,82.17
2019-01-06T09:04:32.230Z,82.18
2019-01-06T09:06:04.597Z,82.01
2019-01-06T09:07:27.202Z,82.09
2019-01-06T09:08:51.200Z,82.03
2019-01-06T09:10:15.165Z,82.01
2019-01-06T09:11:38.716Z,82.00
2019-01-06T09:13:07.087Z,82.01
2019-01-06T09:14:40.625Z,82.01
2019-01-06T09:16:04.558Z,81.93
2019-01-06T09:17:27.323Z,81.81
2019-01-06T09:18:51.413Z,81.89
2019-01-06T09:20:18.507Z,81.77
2019-01-06T09:21:38.000Z,81.66
2019-01-06T09:23:01.872Z,81.79
2019-01-06T09:24:18.780Z,81.85
2019-01-06T09:25:41.470Z,81.76
2019-01-06T09:27:04.044Z,81.47
2019-01-06T09:28:31.195Z,81.41
2019-01-06T09:30:06.863Z,81.44
2019-01-06T09:31:30.565Z,81.43
2019-01-06T09:32:52.007Z,81.44
2019-01-06T09:34:21.970Z,81.49
2019-01-06T09:36:00.464Z,81.47
2019-01-06T09:37:21.748Z,81.51
2019-01-06T09:38:44.078Z,81.51
2019-01-06T09:40:17.985Z,81.48
2019-01-06T09:41:35.303Z,81.38
2019-01-06T09:43:02.220Z,81.20
2019-01-06T09:44:21.164Z,81.23
2019-01-06T09:45:44.266Z,81.10
2019-01-06T09:47:05.122Z,81.14
2019-01-06T09:48:32.147Z,81.20
2019-01-06T09:50:08.860Z,81.28
2019-01-06T09:51:38.561Z,81.42
2019-01-06T09:53:08.278Z,81.54
2019-01-06T09:54:35.088Z,81.46
2019-01-06T09:55:57.925Z,81.47
2019-01-06T09:57:28.087Z,81.23
2019-01-06T09:58:50.020Z,80.98
2019-01-06T10:00:18.486Z,81.04
2019-01-06T10:01:48.522Z,81.10
2019-01-06T10:03:03.270Z,80.94
2019-01-06T10:04:35.127Z,80.88
2019-01-06T10:05:58.507Z,80.95
2019-01-06T10:07:37.577Z,81.06
2019-01-06T10:08:55.100Z,81.07
2019-01-06T10:10:17.945Z,80.98
2019-01-06T10:11:40.614Z,80.96
2019-01-06T10:13:03.343Z,80.88
2019-01-06T10:14:30.290Z,80.98
2019-01-06T10:15:54.355Z,80.83
2019-01-06T10:17:16.908Z,80.65
2019-01-06T10:18:43.786Z,80.84
2019-01-06T10:20:02.321Z,80.83
2019-01-06T10:21:31.573Z,80.80
2019-01-06T10:22:54.427Z,80.74
2019-01-06T10:24:21.559Z,80.68
2019-01-06T10:25:48.675Z,80.81
2019-01-06T10:27:11.446Z,80.95
2019-01-06T10:28:35.661Z,81.03
2019-01-06T10:30:00.023Z,80.96
2019-01-06T10:31:20.631Z,80.94
2019-01-06T10:32:44.373Z,80.88
2019-01-06T10:34:03.772Z,80.90
2019-01-06T10:35:26.478Z,80.86
2019-01-06T10:36:49.279Z,81.00
2019-01-06T10:38:12.961Z,81.08
2019-01-06T10:39:36.908Z,80.99
2019-01-06T10:41:19.023Z,81.03
2019-01-06T10:42:36.583Z,80.93
2019-01-06T10:44:15.463Z,80.85
2019-01-06T10:45:35.966Z,80.95
2019-01-06T10:47:08.817Z,80.94
2019-01-06T10:48:38.264Z,80.87
2019-01-06T10:49:58.864Z,80.68
2019-01-06T10:51:37.854Z,80.55
2019-01-06T10:53:00.470Z,80.61
2019-01-06T10:54:27.386Z,80.57
2019-01-06T10:55:58.884Z,80.44
2019-01-06T10:57:21.595Z,80.24
2019-01-06T10:58:44.425Z,80.04
2019-01-06T11:00:09.225Z,80.14
2019-01-06T11:01:36.500Z,80.19
2019-01-06T11:03:12.769Z,80.23
2019-01-06T11:04:39.736Z,80.24
2019-01-06T11:06:22.020Z,80.14
2019-01-06T11:07:44.460Z,80.15
2019-01-06T11:09:09.419Z,80.19
2019-01-06T11:10:36.131Z,80.17
2019-01-06T11:11:58.806Z,80.03
2019-01-06T11:13:21.424Z,80.05
2019-01-06T11:14:44.045Z,79.93
2019-01-06T11:16:17.040Z,79.92
2019-01-06T11:17:52.982Z,79.85
2019-01-06T11:19:22.782Z,79.69
2019-01-06T11:20:46.930Z,79.71
2019-01-06T11:22:09.600Z,79.74
2019-01-06T11:23:46.080Z,79.63
2019-01-06T11:25:08.585Z,79.69
2019-01-06T11:26:37.656Z,79.54
2019-01-06T11:28:01.962Z,79.53
2019-01-06T11:29:28.986Z,79.55
2019-01-06T11:30:51.915Z,79.63
2019-01-06T11:32:21.635Z,79.53
2019-01-06T11:33:49.005Z,79.46
2019-01-06T11:35:06.677Z,79.52
2019-01-06T11:36:29.080Z,79.26
2019-01-06T11:37:52.110Z,79.27
2019-01-06T11:39:18.761Z,79.28
2019-01-06T11:40:49.537Z,79.29
2019-01-06T11:42:15.362Z,79.27
2019-01-06T11:43:37.453Z,79.18
2019-01-06T11:45:04.415Z,79.00
2019-01-06T11:46:40.466Z,78.95
2019-01-06T11:48:02.721Z,79.00
2019-01-06T11:49:25.404Z,78.98
2019-01-06T11:50:55.207Z,78.97
2019-01-06T11:52:35.383Z,78.87
2019-01-06T11:54:07.191Z,78.68
2019-01-06T11:55:29.868Z,78.52
2019-01-06T11:56:54.155Z,78.36
2019-01-06T11:58:16.660Z,78.37
2019-01-06T11:59:39.561Z,78.22
2019-01-06T12:01:06.779Z,78.12
2019-01-06T12:02:38.776Z,78.06
2019-01-06T12:03:55.468Z,78.10
2019-01-06T12:05:20.160Z,78.02
2019-01-06T12:06:42.757Z,78.06
2019-01-06T12:08:24.984Z,77.96
2019-01-06T12:09:50.533Z,77.88
2019-01-06T12:11:13.551Z,77.77
2019-01-06T12:12:35.704Z,77.57
2019-01-06T12:14:02.483Z,77.63
2019-01-06T12:15:29.414Z,77.83
2019-01-06T12:16:53.404Z,77.73
2019-01-06T12:18:16.135Z,77.69
2019-01-06T12:19:38.773Z,77.58
2019-01-06T12:21:01.690Z,77.40
2019-01-06T12:22:42.035Z,77.22
2019-01-06T12:24:13.086Z,77.26
2019-01-06T12:25:35.458Z,77.24
2019-01-06T12:26:59.653Z,77.18
2019-01-06T12:28:23.748Z,77.04
2019-01-06T12:29:46.345Z,76.90
2019-01-06T12:31:16.318Z,76.88
2019-01-06T12:32:49.310Z,76.91
2019-01-06T12:34:08.536Z,76.58
2019-01-06T12:35:34.279Z,76.53
2019-01-06T12:36:56.950Z,76.48
2019-01-06T12:38:37.483Z,76.58
2019-01-06T12:40:19.775Z,76.50
2019-01-06T12:41:42.179Z,76.54
2019-01-06T12:43:05.665Z,76.21
2019-01-06T12:44:35.549Z,76.10
2019-01-06T12:45:57.886Z,76.11
2019-01-06T12:47:20.238Z,76.09
2019-01-06T12:48:39.430Z,76.06
2019-01-06T12:49:57.625Z,75.92
2019-01-06T12:51:17.676Z,75.85
2019-01-06T12:52:44.779Z,75.69
2019-01-06T12:54:09.130Z,75.66
2019-01-06T12:55:48.367Z,75.84
2019-01-06T12:57:12.322Z,75.81
2019-01-06T12:58:37.081Z,75.63
2019-01-06T12:59:59.952Z,75.54
2019-01-06T13:01:39.173Z,75.49
2019-01-06T13:03:06.283Z,75.47
2019-01-06T13:04:33.495Z,75.29
2019-01-06T13:06:01.098Z,75.39
2019-01-06T13:07:37.279Z,75.52
2019-01-06T13:09:07.979Z,75.47
2019-01-06T13:10:30.846Z,74.97
2019-01-06T13:11:56.869Z,74.87
2019-01-06T13:13:38.984Z,74.68
2019-01-06T13:15:01.354Z,74.83
2019-01-06T13:16:24.041Z,74.92
2019-01-06T13:17:56.957Z,74.81
2019-01-06T13:19:18.103Z,74.69
2019-01-06T13:20:42.451Z,74.74
2019-01-06T13:22:02.292Z,74.78
2019-01-06T13:23:24.589Z,74.76
2019-01-06T13:24:47.022Z,74.65
2019-01-06T13:26:08.060Z,74.65
2019-01-06T13:27:35.853Z,74.66
2019-01-06T13:29:13.631Z,74.61
2019-01-06T13:30:46.547Z,74.57
2019-01-06T13:32:10.620Z,74.49
2019-01-06T13:33:32.785Z,74.39
2019-01-06T13:34:57.122Z,74.52
2019-01-06T13:36:19.640Z,74.49
2019-01-06T13:37:46.086Z,74.50
2019-01-06T13:39:13.040Z,74.61
2019-01-06T13:41:02.605Z,74.52
2019-01-06T13:42:20.617Z,74.49
2019-01-06T13:43:42.962Z,74.33
2019-01-06T13:45:10.654Z,74.27
2019-01-06T13:46:32.376Z,74.26
2019-01-06T13:47:54.928Z,74.19
2019-01-06T13:49:29.211Z,74.17
2019-01-06T13:51:05.515Z,73.95
2019-01-06T13:52:23.487Z,73.76
2019-01-06T13:53:47.500Z,73.82
2019-01-06T13:55:11.538Z,73.89
2019-01-06T13:56:44.621Z,73.85
2019-01-06T13:58:06.831Z,73.75
2019-01-06T13:59:30.943Z,73.65
2019-01-06T14:01:04.006Z,73.61
2019-01-06T14:02:26.956Z,73.61
2019-01-06T14:03:49.015Z,73.58
2019-01-06T14:05:22.186Z,73.74
2019-01-06T14:06:54.520Z,73.75
2019-01-06T14:08:21.477Z,73.85
2019-01-06T14:09:54.568Z,73.86
2019-01-06T14:11:33.601Z,73.92
2019-01-06T14:12:49.393Z,73.93
2019-01-06T14:14:16.314Z,73.89
2019-01-06T14:15:43.337Z,73.97
2019-01-06T14:17:04.317Z,74.04
2019-01-06T14:18:26.911Z,74.06
2019-01-06T14:19:44.089Z,74.04
2019-01-06T14:21:06.397Z,73.91
2019-01-06T14:22:36.245Z,73.89
2019-01-06T14:24:06.081Z,73.80
2019-01-06T14:25:28.554Z,73.77
2019-01-06T14:26:51.358Z,73.72
2019-01-06T14:28:18.199Z,73.64
2019-01-06T14:29:33.686Z,73.28
2019-01-06T14:30:57.652Z,73.21
2019-01-06T14:32:40.102Z,73.34
2019-01-06T14:34:10.862Z,73.24
2019-01-06T14:35:28.227Z,72.96
2019-01-06T14:36:47.429Z,72.95
2019-01-06T14:38:11.435Z,72.90
2019-01-06T14:39:34.052Z,72.92
2019-01-06T14:41:01.178Z,73.01
2019-01-06T14:42:40.063Z,73.03
2019-01-06T14:44:06.879Z,72.97
2019-01-06T14:45:38.295Z,72.86
2019-01-06T14:47:03.430Z,72.84
2019-01-06T14:48:21.246Z,72.77
2019-01-06T14:49:57.596Z,72.69
2019-01-06T14:51:24.350Z,72.50
2019-01-06T14:52:46.759Z,72.60
2019-01-06T14:54:09.363Z,72.53
2019-01-06T14:55:45.359Z,72.53
2019-01-06T14:57:16.688Z,72.57
2019-01-06T14:58:49.838Z,72.69
2019-01-06T15:00:12.356Z,72.72
2019-01-06T15:01:45.531Z,72.68
2019-01-06T15:03:07.993Z,72.72
2019-01-06T15:04:30.426Z,72.72
2019-01-06T15:05:53.064Z,72.76
2019-01-06T15:07:21.687Z,72.82
2019-01-06T15:08:56.299Z,72.80
2019-01-06T15:10:29.155Z,72.76
2019-01-06T15:11:58.973Z,72.81
2019-01-06T15:13:21.445Z,72.82
2019-01-06T15:14:43.740Z,72.85
2019-01-06T15:16:13.740Z,72.81
2019-01-06T15:17:52.917Z,72.77
2019-01-06T15:19:22.685Z,72.81
2019-01-06T15:20:52.622Z,72.73
2019-01-06T15:22:15.224Z,72.83
2019-01-06T15:23:39.031Z,72.89
2019-01-06T15:24:58.567Z,72.82
2019-01-06T15:26:28.838Z,72.93
2019-01-06T15:27:51.406Z,72.89
2019-01-06T15:29:20.442Z,72.93
2019-01-06T15:30:55.718Z,72.83
2019-01-06T15:32:16.105Z,72.91
2019-01-06T15:33:34.124Z,72.91
2019-01-06T15:35:01.866Z,72.83
2019-01-06T15:36:24.643Z,72.70
2019-01-06T15:37:46.753Z,72.79
2019-01-06T15:39:06.018Z,72.76
2019-01-06T15:40:28.764Z,72.80
2019-01-06T15:41:55.685Z,72.87
2019-01-06T15:43:34.734Z,72.85
2019-01-06T15:44:57.487Z,72.75
2019-01-06T15:46:24.498Z,72.85
2019-01-06T15:47:59.476Z,72.96
2019-01-06T15:49:23.172Z,73.01
2019-01-06T15:50:46.904Z,72.96
2019-01-06T15:52:28.958Z,72.93
2019-01-06T15:53:56.165Z,72.90
2019-01-06T15:55:29.855Z,72.85
2019-01-06T15:56:52.507Z,72.89
2019-01-06T15:58:15.674Z,72.97
2019-01-06T15:59:48.411Z,73.09
2019-01-06T16:01:23.290Z,73.07
2019-01-06T16:02:50.330Z,73.08
2019-01-06T16:04:14.815Z,73.10
2019-01-06T16:05:37.241Z,73.13
2019-01-06T16:06:59.626Z,73.17
2019-01-06T16:08:23.747Z,73.23
2019-01-06T16:10:06.132Z,73.26
2019-01-06T16:11:28.528Z,73.24
2019-01-06T16:12:51.645Z,73.27
2019-01-06T16:14:15.215Z,73.37
2019-01-06T16:15:34.160Z,73.30
2019-01-06T16:16:56.605Z,73.27
2019-01-06T16:18:19.175Z,73.23
2019-01-06T16:19:43.166Z,73.19
2019-01-06T16:21:00.461Z,73.17
2019-01-06T16:22:34.473Z,73.17
2019-01-06T16:24:01.566Z,73.18
2019-01-06T16:25:37.572Z,73.25
2019-01-06T16:27:05.938Z,73.25
2019-01-06T16:28:34.195Z,73.32
2019-01-06T16:30:01.196Z,73.36
2019-01-06T16:31:23.690Z,73.37
2019-01-06T16:32:41.536Z,73.46
2019-01-06T16:34:14.531Z,73.48
2019-01-06T16:35:43.291Z,73.51
2019-01-06T16:37:15.765Z,73.53
2019-01-06T16:38:49.459Z,73.66
2019-01-06T16:40:22.879Z,73.74
2019-01-06T16:41:49.920Z,73.82
2019-01-06T16:43:30.674Z,73.87
2019-01-06T16:44:53.384Z,73.88
2019-01-06T16:46:16.080Z,73.79
2019-01-06T16:47:38.530Z,73.68
2019-01-06T16:49:06.505Z,73.71
2019-01-06T16:50:30.700Z,73.76
2019-01-06T16:51:54.779Z,73.67
2019-01-06T16:53:24.688Z,73.63
2019-01-06T16:54:50.867Z,73.61
2019-01-06T16:56:07.864Z,73.52
2019-01-06T16:57:30.542Z,73.57
2019-01-06T16:59:00.372Z,73.67
2019-01-06T17:00:22.998Z,73.75
2019-01-06T17:01:48.822Z,73.77
2019-01-06T17:03:12.761Z,73.86
2019-01-06T17:04:35.376Z,73.87
2019-01-06T17:05:57.937Z,74.01
2019-01-06T17:07:20.963Z,74.06
2019-01-06T17:08:43.642Z,74.08
2019-01-06T17:10:12.049Z,74.09
2019-01-06T17:11:34.648Z,74.16
2019-01-06T17:12:57.505Z,74.15
2019-01-06T17:14:21.582Z,74.16
2019-01-06T17:15:42.267Z,74.20
2019-01-06T17:17:15.421Z,74.26
2019-01-06T17:18:39.662Z,74.22
2019-01-06T17:20:00.499Z,74.23
2019-01-06T17:21:27.478Z,74.28
2019-01-06T17:22:55.103Z,74.31
2019-01-06T17:24:18.227Z,74.27
2019-01-06T17:25:49.788Z,74.40
2019-01-06T17:27:12.697Z,74.51
2019-01-06T17:28:50.441Z,74.52
2019-01-06T17:30:26.548Z,74.62
2019-01-06T17:31:50.632Z,74.64
2019-01-06T17:33:24.757Z,74.71
2019-01-06T17:34:47.218Z,74.69
2019-01-06T17:36:23.410Z,74.71
2019-01-06T17:37:45.971Z,74.67
2019-01-06T17:39:08.988Z,74.77
2019-01-06T17:40:33.101Z,74.87
2019-01-06T17:41:59.835Z,74.96
2019-01-06T17:43:23.957Z,74.94
2019-01-06T17:44:43.097Z,75.06
2019-01-06T17:46:06.560Z,75.18
2019-01-06T17:47:30.589Z,75.18
2019-01-06T17:48:55.052Z,75.22
2019-01-06T17:50:17.768Z,75.23
2019-01-06T17:51:40.311Z,75.31
2019-01-06T17:53:00.237Z,75.45
2019-01-06T17:54:21.316Z,75.54
2019-01-06T17:55:45.382Z,75.56
2019-01-06T17:57:07.988Z,75.56
2019-01-06T17:58:37.700Z,75.64
2019-01-06T18:00:00.162Z,75.65
2019-01-06T18:01:23.973Z,75.72
2019-01-06T18:02:47.090Z,75.76
2019-01-06T18:04:10.129Z,75.77
2019-01-06T18:05:38.476Z,75.86
2019-01-06T18:07:14.874Z,75.97
2019-01-06T18:08:56.719Z,76.00
2019-01-06T18:10:21.771Z,75.99
2019-01-06T18:11:44.827Z,75.88
2019-01-06T18:13:11.436Z,75.86
2019-01-06T18:14:35.941Z,75.83
2019-01-06T18:16:08.875Z,75.79
2019-01-06T18:17:36.194Z,75.79
2019-01-06T18:19:15.286Z,75.82
2019-01-06T18:20:49.070Z,75.94
2019-01-06T18:22:24.857Z,76.08
2019-01-06T18:23:47.298Z,76.15
2019-01-06T18:25:07.579Z,76.20
2019-01-06T18:26:30.276Z,76.27
2019-01-06T18:28:01.938Z,76.32
2019-01-06T18:29:26.033Z,76.29
2019-01-06T18:30:56.990Z,76.27